sensor_id;sensor_type;location;lat;lon;timestamp;pressure;altitude;pressure_sealevel;temperature;humidity
64503;BME280;50971;51.940;21.258;2024-03-06T00:02:14;100839.08;;;5.66;100.00
64503;BME280;50971;51.940;21.258;2024-03-06T00:12:16;100836.92;;;5.76;100.00
64503;BME280;50971;51.940;21.258;2024-03-06T00:22:17;100840.95;;;5.77;100.00
64503;BME280;50971;51.940;21.258;2024-03-06T00:32:23;100842.83;;;5.73;100.00
64503;BME280;50971;51.940;21.258;2024-03-06T00:42:26;100848.16;;;5.82;100.00
64503;BME280;50971;51.940;21.258;2024-03-06T00:52:27;100849.42;;;5.95;100.00
64503;BME280;50971;51.940;21.258;2024-03-06T01:02:29;100852.84;;;6.09;100.00
64503;BME280;50971;51.940;21.258;2024-03-06T01:12:31;100858.55;;;6.09;100.00
64503;BME280;50971;51.940;21.258;2024-03-06T01:22:35;100862.98;;;6.07;100.00
64503;BME280;50971;51.940;21.258;2024-03-06T01:32:37;100862.80;;;6.23;100.00
64503;BME280;50971;51.940;21.258;2024-03-06T01:42:39;100865.90;;;6.31;100.00
64503;BME280;50971;51.940;21.258;2024-03-06T01:52:41;100869.80;;;6.38;100.00
64503;BME280;50971;51.940;21.258;2024-03-06T02:02:43;100873.98;;;6.28;100.00
64503;BME280;50971;51.940;21.258;2024-03-06T02:12:45;100871.89;;;6.22;100.00
64503;BME280;50971;51.940;21.258;2024-03-06T02:22:47;100878.09;;;6.25;100.00
64503;BME280;50971;51.940;21.258;2024-03-06T02:32:49;100883.40;;;6.28;100.00
64503;BME280;50971;51.940;21.258;2024-03-06T02:42:50;100885.96;;;6.23;100.00
64503;BME280;50971;51.940;21.258;2024-03-06T02:52:52;100886.85;;;6.26;100.00
64503;BME280;50971;51.940;21.258;2024-03-06T03:02:55;100889.73;;;6.32;100.00
64503;BME280;50971;51.940;21.258;2024-03-06T03:12:56;100895.20;;;6.29;100.00
64503;BME280;50971;51.940;21.258;2024-03-06T03:22:58;100896.65;;;6.27;100.00
64503;BME280;50971;51.940;21.258;2024-03-06T03:33:01;100901.30;;;6.16;100.00
64503;BME280;50971;51.940;21.258;2024-03-06T03:43:03;100911.14;;;6.14;100.00
64503;BME280;50971;51.940;21.258;2024-03-06T03:53:08;100918.13;;;6.05;100.00
64503;BME280;50971;51.940;21.258;2024-03-06T04:12:05;100923.77;;;5.93;100.00
64503;BME280;50971;51.940;21.258;2024-03-06T04:22:07;100930.63;;;5.70;100.00
64503;BME280;50971;51.940;21.258;2024-03-06T04:32:09;100934.73;;;5.62;100.00
64503;BME280;50971;51.940;21.258;2024-03-06T04:42:10;100939.70;;;5.58;100.00
64503;BME280;50971;51.940;21.258;2024-03-06T04:52:12;100942.84;;;5.42;100.00
64503;BME280;50971;51.940;21.258;2024-03-06T05:02:14;100952.91;;;5.35;100.00
64503;BME280;50971;51.940;21.258;2024-03-06T05:12:16;100967.27;;;5.19;100.00
64503;BME280;50971;51.940;21.258;2024-03-06T05:22:31;100976.67;;;5.06;100.00
64503;BME280;50971;51.940;21.258;2024-03-06T05:32:47;100986.83;;;5.08;100.00
64503;BME280;50971;51.940;21.258;2024-03-06T05:43:03;100995.27;;;5.01;100.00
64503;BME280;50971;51.940;21.258;2024-03-06T05:53:19;101000.14;;;5.00;100.00
64503;BME280;50971;51.940;21.258;2024-03-06T06:03:35;101008.64;;;4.94;100.00
64503;BME280;50971;51.940;21.258;2024-03-06T06:13:38;101017.55;;;4.92;100.00
64503;BME280;50971;51.940;21.258;2024-03-06T06:23:41;101027.95;;;5.03;100.00
64503;BME280;50971;51.940;21.258;2024-03-06T06:33:42;101033.83;;;5.08;100.00
64503;BME280;50971;51.940;21.258;2024-03-06T06:43:47;101049.31;;;5.21;100.00
64503;BME280;50971;51.940;21.258;2024-03-06T06:53:48;101060.10;;;5.29;100.00
64503;BME280;50971;51.940;21.258;2024-03-06T07:03:50;101071.24;;;5.38;100.00
64503;BME280;50971;51.940;21.258;2024-03-06T07:13:52;101077.98;;;5.44;100.00
64503;BME280;50971;51.940;21.258;2024-03-06T07:23:54;101081.05;;;5.63;100.00
64503;BME280;50971;51.940;21.258;2024-03-06T07:33:56;101090.67;;;5.73;100.00
64503;BME280;50971;51.940;21.258;2024-03-06T07:43:59;101094.50;;;5.93;100.00
64503;BME280;50971;51.940;21.258;2024-03-06T07:54:02;101099.91;;;6.05;100.00
64503;BME280;50971;51.940;21.258;2024-03-06T08:04:05;101106.42;;;6.26;100.00
64503;BME280;50971;51.940;21.258;2024-03-06T08:14:07;101115.17;;;6.41;100.00
64503;BME280;50971;51.940;21.258;2024-03-06T08:24:09;101120.07;;;6.30;100.00
64503;BME280;50971;51.940;21.258;2024-03-06T08:34:11;101125.10;;;6.29;100.00
64503;BME280;50971;51.940;21.258;2024-03-06T08:44:13;101132.66;;;6.23;100.00
64503;BME280;50971;51.940;21.258;2024-03-06T08:54:16;101141.52;;;6.24;100.00
64503;BME280;50971;51.940;21.258;2024-03-06T09:04:17;101151.19;;;6.17;100.00
64503;BME280;50971;51.940;21.258;2024-03-06T09:14:19;101150.65;;;6.18;100.00
64503;BME280;50971;51.940;21.258;2024-03-06T09:24:22;101154.92;;;6.59;100.00
64503;BME280;50971;51.940;21.258;2024-03-06T09:34:25;101154.34;;;6.89;100.00
64503;BME280;50971;51.940;21.258;2024-03-06T09:44:27;101156.67;;;7.38;100.00
64503;BME280;50971;51.940;21.258;2024-03-06T09:54:29;101170.69;;;7.10;100.00
64503;BME280;50971;51.940;21.258;2024-03-06T10:04:32;101180.90;;;6.68;100.00
64503;BME280;50971;51.940;21.258;2024-03-06T10:14:36;101189.73;;;6.33;100.00
64503;BME280;50971;51.940;21.258;2024-03-06T10:24:38;101199.33;;;6.11;100.00
64503;BME280;50971;51.940;21.258;2024-03-06T10:34:40;101209.73;;;6.18;100.00
64503;BME280;50971;51.940;21.258;2024-03-06T10:44:51;101215.48;;;6.08;100.00
64503;BME280;50971;51.940;21.258;2024-03-06T10:54:54;101221.83;;;5.98;100.00
64503;BME280;50971;51.940;21.258;2024-03-06T11:04:58;101225.78;;;5.74;100.00
64503;BME280;50971;51.940;21.258;2024-03-06T11:15:09;101228.74;;;5.61;100.00
64503;BME280;50971;51.940;21.258;2024-03-06T11:56:45;101228.27;;;6.07;100.00
64503;BME280;50971;51.940;21.258;2024-03-06T12:06:52;101233.23;;;6.09;100.00
64503;BME280;50971;51.940;21.258;2024-03-06T12:27:06;101237.65;;;6.35;100.00
64503;BME280;50971;51.940;21.258;2024-03-06T12:37:09;101239.81;;;6.38;100.00
64503;BME280;50971;51.940;21.258;2024-03-06T12:47:12;101242.19;;;6.32;100.00
64503;BME280;50971;51.940;21.258;2024-03-06T12:57:14;101245.56;;;6.06;100.00
64503;BME280;50971;51.940;21.258;2024-03-06T13:07:16;101251.37;;;5.90;100.00
64503;BME280;50971;51.940;21.258;2024-03-06T13:17:18;101254.80;;;5.97;100.00
64503;BME280;50971;51.940;21.258;2024-03-06T13:27:20;101261.79;;;5.85;100.00
64503;BME280;50971;51.940;21.258;2024-03-06T13:37:22;101266.71;;;5.91;100.00
64503;BME280;50971;51.940;21.258;2024-03-06T13:47:25;101269.34;;;6.00;100.00
64503;BME280;50971;51.940;21.258;2024-03-06T13:57:28;101269.14;;;5.90;100.00
64503;BME280;50971;51.940;21.258;2024-03-06T14:07:30;101268.00;;;5.90;100.00
64503;BME280;50971;51.940;21.258;2024-03-06T14:17:32;101275.14;;;6.02;100.00
64503;BME280;50971;51.940;21.258;2024-03-06T14:27:34;101277.54;;;6.07;100.00
64503;BME280;50971;51.940;21.258;2024-03-06T14:37:37;101279.09;;;6.09;100.00
64503;BME280;50971;51.940;21.258;2024-03-06T14:47:40;101283.96;;;5.95;100.00
64503;BME280;50971;51.940;21.258;2024-03-06T14:57:43;101290.80;;;5.81;100.00
64503;BME280;50971;51.940;21.258;2024-03-06T15:07:44;101291.83;;;5.85;100.00
64503;BME280;50971;51.940;21.258;2024-03-06T15:17:46;101296.86;;;5.70;100.00
64503;BME280;50971;51.940;21.258;2024-03-06T15:27:49;101305.27;;;5.65;100.00
64503;BME280;50971;51.940;21.258;2024-03-06T15:37:50;101307.79;;;5.43;100.00
64503;BME280;50971;51.940;21.258;2024-03-06T15:47:54;101313.01;;;5.27;100.00
64503;BME280;50971;51.940;21.258;2024-03-06T15:57:56;101320.67;;;5.00;100.00
64503;BME280;50971;51.940;21.258;2024-03-06T16:07:59;101327.25;;;4.68;100.00
64503;BME280;50971;51.940;21.258;2024-03-06T16:18:06;101335.11;;;4.30;100.00
64503;BME280;50971;51.940;21.258;2024-03-06T16:28:11;101343.92;;;4.08;100.00
64503;BME280;50971;51.940;21.258;2024-03-06T16:38:13;101351.44;;;3.77;100.00
64503;BME280;50971;51.940;21.258;2024-03-06T16:48:15;101364.81;;;3.62;100.00
64503;BME280;50971;51.940;21.258;2024-03-06T16:58:17;101376.41;;;3.34;100.00
64503;BME280;50971;51.940;21.258;2024-03-06T17:08:19;101384.95;;;3.16;100.00
64503;BME280;50971;51.940;21.258;2024-03-06T17:18:21;101397.75;;;2.97;100.00
64503;BME280;50971;51.940;21.258;2024-03-06T17:28:23;101400.17;;;2.92;100.00
64503;BME280;50971;51.940;21.258;2024-03-06T17:38:25;101400.34;;;2.96;100.00
64503;BME280;50971;51.940;21.258;2024-03-06T17:48:29;101406.45;;;2.83;100.00
64503;BME280;50971;51.940;21.258;2024-03-06T17:58:31;101409.86;;;2.73;100.00
64503;BME280;50971;51.940;21.258;2024-03-06T18:08:33;101415.48;;;2.50;100.00
64503;BME280;50971;51.940;21.258;2024-03-06T18:18:35;101420.77;;;2.21;100.00
64503;BME280;50971;51.940;21.258;2024-03-06T18:28:37;101431.93;;;2.02;100.00
64503;BME280;50971;51.940;21.258;2024-03-06T18:38:40;101437.81;;;1.73;100.00
64503;BME280;50971;51.940;21.258;2024-03-06T18:48:46;101437.17;;;1.74;100.00
64503;BME280;50971;51.940;21.258;2024-03-06T18:58:48;101452.50;;;2.05;100.00
64503;BME280;50971;51.940;21.258;2024-03-06T19:08:50;101457.71;;;2.54;100.00
64503;BME280;50971;51.940;21.258;2024-03-06T19:18:53;101463.04;;;2.88;100.00
64503;BME280;50971;51.940;21.258;2024-03-06T19:28:56;101470.19;;;3.13;100.00
64503;BME280;50971;51.940;21.258;2024-03-06T19:38:58;101475.38;;;3.20;100.00
64503;BME280;50971;51.940;21.258;2024-03-06T19:48:59;101478.43;;;3.37;100.00
64503;BME280;50971;51.940;21.258;2024-03-06T19:59:01;101484.52;;;3.37;100.00
64503;BME280;50971;51.940;21.258;2024-03-06T20:09:05;101483.86;;;3.35;100.00
64503;BME280;50971;51.940;21.258;2024-03-06T20:19:09;101481.83;;;3.34;100.00
64503;BME280;50971;51.940;21.258;2024-03-06T20:29:11;101481.80;;;3.35;100.00
64503;BME280;50971;51.940;21.258;2024-03-06T20:39:14;101484.61;;;3.30;100.00
64503;BME280;50971;51.940;21.258;2024-03-06T20:49:17;101483.64;;;3.31;100.00
64503;BME280;50971;51.940;21.258;2024-03-06T20:59:27;101491.70;;;3.23;100.00
64503;BME280;50971;51.940;21.258;2024-03-06T21:09:29;101502.48;;;3.20;100.00
64503;BME280;50971;51.940;21.258;2024-03-06T21:19:30;101505.13;;;3.14;100.00
64503;BME280;50971;51.940;21.258;2024-03-06T21:29:32;101511.56;;;3.14;100.00
64503;BME280;50971;51.940;21.258;2024-03-06T21:39:35;101518.13;;;3.15;100.00
64503;BME280;50971;51.940;21.258;2024-03-06T21:49:37;101529.73;;;3.12;100.00
64503;BME280;50971;51.940;21.258;2024-03-06T21:59:40;101530.27;;;3.10;100.00
64503;BME280;50971;51.940;21.258;2024-03-06T22:09:42;101529.59;;;3.11;100.00
64503;BME280;50971;51.940;21.258;2024-03-06T22:19:43;101537.95;;;3.04;100.00
64503;BME280;50971;51.940;21.258;2024-03-06T22:29:45;101542.48;;;2.93;100.00
64503;BME280;50971;51.940;21.258;2024-03-06T22:39:48;101542.84;;;2.82;100.00
64503;BME280;50971;51.940;21.258;2024-03-06T22:49:50;101547.98;;;2.72;100.00
64503;BME280;50971;51.940;21.258;2024-03-06T22:59:52;101553.20;;;2.66;100.00
64503;BME280;50971;51.940;21.258;2024-03-06T23:09:54;101561.23;;;2.56;100.00
64503;BME280;50971;51.940;21.258;2024-03-06T23:19:56;101570.44;;;2.38;100.00
64503;BME280;50971;51.940;21.258;2024-03-06T23:29:58;101570.25;;;2.23;100.00
64503;BME280;50971;51.940;21.258;2024-03-06T23:40:02;101576.55;;;2.10;100.00
64503;BME280;50971;51.940;21.258;2024-03-06T23:50:07;101581.30;;;2.02;100.00
